createdAt,value
2022-08-03T00:02:22.073Z,5.25
2022-08-03T00:04:50.500Z,4.70
2022-08-03T00:07:20.175Z,3.58
2022-08-03T00:09:55.649Z,4.10
2022-08-03T00:12:28.613Z,3.72
2022-08-03T00:14:59.237Z,3.28
2022-08-03T00:17:30.376Z,3.25
2022-08-03T00:20:20.581Z,3.53
2022-08-03T00:22:54.551Z,3.00
2022-08-03T00:25:22.985Z,3.45
2022-08-03T00:27:55.981Z,3.10
2022-08-03T00:30:34.782Z,3.00
2022-08-03T00:33:08.517Z,3.95
2022-08-03T00:35:50.710Z,3.30
2022-08-03T00:38:31.035Z,3.67
2022-08-03T00:41:03.148Z,3.50
2022-08-03T00:43:32.578Z,3.60
2022-08-03T00:46:03.870Z,3.70
2022-08-03T00:48:33.531Z,3.92
2022-08-03T00:51:09.119Z,3.60
2022-08-03T00:56:17.342Z,3.90
2022-08-03T00:59:00.016Z,4.32
2022-08-03T01:04:29.904Z,4.00
2022-08-03T01:07:24.053Z,4.40
2022-08-03T01:10:03.640Z,4.35
2022-08-03T01:14:02.047Z,4.45
2022-08-03T01:16:13.399Z,6.45
2022-08-03T01:19:07.176Z,5.93
2022-08-03T01:21:55.271Z,5.93
2022-08-03T01:25:02.816Z,5.28
2022-08-03T01:28:08.917Z,4.97
2022-08-03T01:30:45.614Z,6.93
2022-08-03T01:33:22.354Z,4.70
2022-08-03T01:36:19.067Z,6.28
2022-08-03T01:38:57.018Z,6.20
2022-08-03T01:41:37.596Z,6.32
2022-08-03T01:44:29.201Z,6.13
2022-08-03T01:47:01.680Z,5.50
2022-08-03T01:49:39.010Z,5.13
2022-08-03T01:52:11.810Z,4.35
2022-08-03T01:54:47.367Z,5.65
2022-08-03T01:57:17.693Z,4.13
2022-08-03T01:59:54.698Z,4.20
2022-08-03T02:02:33.623Z,4.30
2022-08-03T02:05:10.706Z,5.47
2022-08-03T02:07:51.287Z,6.93
2022-08-03T02:10:35.593Z,6.63
2022-08-03T02:13:07.845Z,5.30
2022-08-03T02:15:40.314Z,4.22
2022-08-03T02:18:11.915Z,4.03
2022-08-03T02:20:43.338Z,3.30
2022-08-03T02:23:31.172Z,3.88
2022-08-03T02:26:04.773Z,4.22
2022-08-03T02:28:37.749Z,4.20
2022-08-03T02:31:13.223Z,4.03
2022-08-03T02:33:48.888Z,3.55
2022-08-03T02:38:53.691Z,3.78
2022-08-03T02:41:25.387Z,3.53
2022-08-03T02:44:07.052Z,3.50
2022-08-03T02:46:39.133Z,3.55
2022-08-03T02:49:49.501Z,3.30
2022-08-03T02:52:05.386Z,3.70
2022-08-03T02:54:35.878Z,3.75
2022-08-03T02:57:08.050Z,3.95
2022-08-03T02:59:38.358Z,4.22
2022-08-03T03:02:07.715Z,3.90
2022-08-03T03:04:37.857Z,4.15
2022-08-03T03:07:16.065Z,6.65
2022-08-03T03:09:47.358Z,10.95
2022-08-03T03:12:17.417Z,23.35
2022-08-03T03:14:46.945Z,23.55
2022-08-03T03:17:18.067Z,14.57
2022-08-03T03:19:47.680Z,8.93
2022-08-03T03:22:17.866Z,7.82
2022-08-03T03:24:48.018Z,6.03
2022-08-03T03:27:17.397Z,4.40
2022-08-03T03:29:46.003Z,4.43
2022-08-03T03:32:17.674Z,4.78
2022-08-03T03:34:48.065Z,3.90
2022-08-03T03:37:23.634Z,3.72
2022-08-03T03:39:54.915Z,3.50
2022-08-03T03:42:25.536Z,3.80
2022-08-03T03:44:54.764Z,3.90
2022-08-03T03:47:32.635Z,3.40
2022-08-03T03:50:06.822Z,3.60
2022-08-03T03:52:41.806Z,3.58
2022-08-03T03:55:10.969Z,3.97
2022-08-03T03:57:39.399Z,3.55
2022-08-03T04:00:10.709Z,3.58
2022-08-03T04:02:46.731Z,3.45
2022-08-03T04:05:35.986Z,4.00
2022-08-03T04:08:38.892Z,4.88
2022-08-03T04:11:30.224Z,4.50
2022-08-03T04:14:16.843Z,4.25
2022-08-03T04:16:52.595Z,5.20
2022-08-03T04:19:32.923Z,5.50
2022-08-03T04:22:09.042Z,4.97
2022-08-03T04:24:46.831Z,4.10
2022-08-03T04:27:20.895Z,3.90
2022-08-03T04:29:53.269Z,4.18
2022-08-03T04:32:25.454Z,3.33
2022-08-03T04:34:54.467Z,3.78
2022-08-03T04:37:43.235Z,3.20
2022-08-03T04:46:09.354Z,5.18
2022-08-03T04:48:37.968Z,4.45
2022-08-03T04:51:09.578Z,4.70
2022-08-03T04:53:39.968Z,3.60
2022-08-03T04:56:09.458Z,3.55
2022-08-03T04:58:40.372Z,3.47
2022-08-03T05:01:10.438Z,3.20
2022-08-03T05:03:40.728Z,3.42
2022-08-03T05:06:11.481Z,3.85
2022-08-03T05:08:46.543Z,4.15
2022-08-03T05:11:21.084Z,3.83
2022-08-03T05:13:52.584Z,3.92
2022-08-03T05:16:24.607Z,4.43
2022-08-03T05:18:55.984Z,3.55
2022-08-03T05:21:24.896Z,3.58
2022-08-03T05:24:11.098Z,3.10
2022-08-03T05:26:40.241Z,2.95
2022-08-03T05:29:22.742Z,2.80
2022-08-03T05:31:51.986Z,2.40
2022-08-03T05:34:27.325Z,2.50
2022-08-03T05:36:56.405Z,2.35
2022-08-03T05:39:24.591Z,2.20
2022-08-03T05:44:44.399Z,3.00
2022-08-03T05:47:13.101Z,2.03
2022-08-03T05:49:41.937Z,1.85
2022-08-03T05:52:15.616Z,6.72
2022-08-03T05:54:56.917Z,3.92
2022-08-03T05:57:26.227Z,2.30
2022-08-03T06:00:10.205Z,1.83
2022-08-03T06:02:41.605Z,4.72
2022-08-03T06:05:11.422Z,1.73
2022-08-03T06:07:41.433Z,2.55
2022-08-03T06:10:36.328Z,2.75
2022-08-03T06:13:07.163Z,2.50
2022-08-03T06:15:39.820Z,1.48
2022-08-03T06:18:11.915Z,2.42
2022-08-03T06:20:44.150Z,2.20
2022-08-03T06:23:25.321Z,1.75
2022-08-03T06:26:13.290Z,1.88
2022-08-03T06:28:52.776Z,1.85
2022-08-03T06:31:33.289Z,2.03
2022-08-03T06:34:32.989Z,1.65
2022-08-03T06:36:53.002Z,1.60
2022-08-03T06:39:23.449Z,1.70
2022-08-03T06:41:54.697Z,1.75
2022-08-03T06:47:07.011Z,1.50
2022-08-03T06:49:36.478Z,1.65
2022-08-03T06:52:07.102Z,1.60
2022-08-03T06:54:37.090Z,1.40
2022-08-03T06:57:08.470Z,1.67
2022-08-03T07:00:06.451Z,1.35
2022-08-03T07:02:28.422Z,1.50
2022-08-03T07:05:00.267Z,1.50
2022-08-03T07:07:34.021Z,1.40
2022-08-03T07:10:30.889Z,1.30
2022-08-03T07:12:59.823Z,1.30
2022-08-03T07:15:38.264Z,1.50
2022-08-03T07:18:29.104Z,1.30
2022-08-03T07:21:14.023Z,2.50
2022-08-03T07:23:43.132Z,1.52
2022-08-03T07:26:12.194Z,1.70
2022-08-03T07:28:41.518Z,1.50
2022-08-03T07:31:13.525Z,1.20
2022-08-03T07:33:43.777Z,1.30
2022-08-03T07:36:12.257Z,1.20
2022-08-03T07:38:40.592Z,1.25
2022-08-03T07:41:09.669Z,1.25
2022-08-03T07:43:45.166Z,1.20
2022-08-03T07:46:14.921Z,1.50
2022-08-03T07:48:43.744Z,0.90
2022-08-03T07:51:14.472Z,1.30
2022-08-03T07:53:47.861Z,1.30
2022-08-03T07:56:17.714Z,1.13
2022-08-03T07:58:48.662Z,1.58
2022-08-03T08:01:20.920Z,1.42
2022-08-03T08:03:53.210Z,1.30
2022-08-03T08:06:22.964Z,1.13
2022-08-03T08:09:00.340Z,1.65
2022-08-03T08:11:28.635Z,1.08
2022-08-03T08:14:06.080Z,1.00
2022-08-03T08:16:34.775Z,1.10
2022-08-03T08:19:04.336Z,1.00
2022-08-03T08:21:53.928Z,1.23
2022-08-03T08:24:24.733Z,1.10
2022-08-03T08:26:56.641Z,1.02
2022-08-03T08:29:47.603Z,1.25
2022-08-03T08:32:23.946Z,1.30
2022-08-03T08:34:56.643Z,1.17
2022-08-03T08:37:28.126Z,1.20
2022-08-03T08:39:58.879Z,1.10
2022-08-03T08:42:27.354Z,0.95
2022-08-03T08:44:56.069Z,1.15
2022-08-03T08:47:29.864Z,1.25
2022-08-03T08:50:27.731Z,1.20
2022-08-03T08:53:17.454Z,1.23
2022-08-03T08:55:58.469Z,1.10
2022-08-03T08:58:37.918Z,1.23
2022-08-03T09:01:09.036Z,1.20
2022-08-03T09:03:39.015Z,1.00
2022-08-03T09:06:08.988Z,1.10
2022-08-03T09:08:38.573Z,1.30
2022-08-03T09:13:54.584Z,1.10
2022-08-03T09:16:30.585Z,1.23
2022-08-03T09:22:14.271Z,1.55
2022-08-03T09:25:24.745Z,1.30
2022-08-03T09:28:09.126Z,1.27
2022-08-03T09:30:41.313Z,1.30
2022-08-03T09:34:10.763Z,1.38
2022-08-03T09:36:56.035Z,1.13
2022-08-03T09:39:40.975Z,1.33
2022-08-03T09:42:30.643Z,1.20
2022-08-03T09:45:08.502Z,1.13
2022-08-03T09:47:45.052Z,1.25
2022-08-03T09:50:18.097Z,2.08
2022-08-03T09:52:52.134Z,1.25
2022-08-03T09:56:34.857Z,1.13
2022-08-03T09:58:36.750Z,1.63
2022-08-03T10:01:08.365Z,1.40
2022-08-03T10:04:07.466Z,1.15
2022-08-03T10:09:30.685Z,1.02
2022-08-03T10:12:18.630Z,2.43
2022-08-03T10:16:21.153Z,3.53
2022-08-03T10:18:14.427Z,1.63
2022-08-03T10:21:03.305Z,1.20
2022-08-03T10:23:35.827Z,1.58
2022-08-03T10:26:12.895Z,1.50
2022-08-03T10:28:51.457Z,1.30
2022-08-03T10:31:24.239Z,1.38
2022-08-03T10:33:57.909Z,1.40
2022-08-03T10:36:43.195Z,1.73
2022-08-03T10:39:20.439Z,1.20
2022-08-03T10:41:51.491Z,1.55
2022-08-03T10:47:14.023Z,1.80
2022-08-03T10:49:43.037Z,1.05
2022-08-03T10:52:31.357Z,1.10
2022-08-03T10:55:21.379Z,1.08
2022-08-03T10:58:11.371Z,1.27
2022-08-03T11:00:58.810Z,1.40
2022-08-03T11:03:27.853Z,1.10
2022-08-03T11:06:17.006Z,1.20
2022-08-03T11:08:49.086Z,1.20
2022-08-03T11:11:30.879Z,1.40
2022-08-03T11:14:17.922Z,1.10
2022-08-03T11:17:14.171Z,1.27
2022-08-03T11:19:59.493Z,0.95
2022-08-03T11:22:51.148Z,1.10
2022-08-03T11:25:54.366Z,1.27
2022-08-03T11:28:29.034Z,1.08
2022-08-03T11:31:48.145Z,1.33
2022-08-03T11:34:14.805Z,1.38
2022-08-03T11:37:22.801Z,1.15
2022-08-03T11:39:57.348Z,1.60
2022-08-03T11:42:27.953Z,1.08
2022-08-03T11:44:58.196Z,1.20
2022-08-03T11:47:28.972Z,1.40
2022-08-03T11:50:02.268Z,1.60
2022-08-03T11:52:40.039Z,1.10
2022-08-03T11:55:15.622Z,1.10
2022-08-03T11:59:01.644Z,1.40
2022-08-03T12:00:53.768Z,1.13
2022-08-03T12:03:22.282Z,1.55
2022-08-03T12:06:11.208Z,1.30
2022-08-03T12:08:39.868Z,1.42
2022-08-03T12:11:10.927Z,1.33
2022-08-03T12:14:37.373Z,1.52
2022-08-03T12:16:41.329Z,1.33
2022-08-03T12:19:12.143Z,0.95
2022-08-03T12:21:57.251Z,1.50
2022-08-03T12:24:37.399Z,1.15
2022-08-03T12:27:13.789Z,1.15
2022-08-03T12:29:42.458Z,1.40
2022-08-03T12:32:26.990Z,1.35
2022-08-03T12:35:03.023Z,1.52
2022-08-03T12:37:32.438Z,1.40
2022-08-03T12:40:09.439Z,1.30
2022-08-03T12:42:41.777Z,1.52
2022-08-03T12:45:28.633Z,1.15
2022-08-03T12:48:01.767Z,1.73
2022-08-03T12:50:36.482Z,1.70
2022-08-03T12:53:09.154Z,1.50
2022-08-03T12:56:04.235Z,1.50
2022-08-03T12:58:35.233Z,2.03
2022-08-03T13:01:09.720Z,1.80
2022-08-03T13:03:50.449Z,2.00
2022-08-03T13:09:05.794Z,1.10
2022-08-03T13:11:58.061Z,3.67
2022-08-03T13:14:32.310Z,1.90
2022-08-03T13:17:00.847Z,1.48
2022-08-03T13:19:29.470Z,2.13
2022-08-03T13:22:03.962Z,1.70
2022-08-03T13:24:35.259Z,1.00
2022-08-03T13:28:01.166Z,1.63
2022-08-03T13:29:57.912Z,2.42
2022-08-03T13:32:26.465Z,1.45
2022-08-03T13:34:59.293Z,2.80
2022-08-03T13:37:32.260Z,1.27
2022-08-03T13:40:05.629Z,1.25
2022-08-03T13:42:37.013Z,1.20
2022-08-03T13:45:08.264Z,1.27
2022-08-03T13:47:43.842Z,1.20
2022-08-03T13:50:13.002Z,1.23
2022-08-03T13:52:53.652Z,1.40
2022-08-03T13:55:23.317Z,2.58
2022-08-03T13:58:06.255Z,2.00
2022-08-03T14:00:35.773Z,8.45
2022-08-03T14:03:13.766Z,1.50
2022-08-03T14:05:45.435Z,1.40
2022-08-03T14:08:14.738Z,0.98
2022-08-03T14:10:47.345Z,1.20
2022-08-03T14:13:25.588Z,1.10
2022-08-03T14:15:58.953Z,1.08
2022-08-03T14:18:33.819Z,1.85
2022-08-03T14:21:07.338Z,1.80
2022-08-03T14:23:42.069Z,1.77
2022-08-03T14:28:55.888Z,2.10
2022-08-03T14:32:10.943Z,1.20
2022-08-03T14:34:16.188Z,1.30
2022-08-03T14:36:45.082Z,1.08
2022-08-03T14:39:15.584Z,2.40
2022-08-03T14:41:44.846Z,2.35
2022-08-03T14:44:13.018Z,1.38
2022-08-03T14:46:43.899Z,1.10
2022-08-03T14:50:38.587Z,1.38
2022-08-03T14:52:02.098Z,1.30
2022-08-03T14:54:33.905Z,1.20
2022-08-03T14:57:02.351Z,1.30
2022-08-03T14:59:56.104Z,1.38
2022-08-03T15:02:33.729Z,2.67
2022-08-03T15:05:06.824Z,1.48
2022-08-03T15:07:35.176Z,1.10
2022-08-03T15:10:03.391Z,1.15
2022-08-03T15:12:35.779Z,1.80
2022-08-03T15:15:05.909Z,1.38
2022-08-03T15:17:39.420Z,1.27
2022-08-03T15:20:42.688Z,1.13
2022-08-03T15:23:24.794Z,1.30
2022-08-03T15:26:29.501Z,1.50
2022-08-03T15:29:02.083Z,1.10
2022-08-03T15:31:34.466Z,1.40
2022-08-03T15:34:12.844Z,1.73
2022-08-03T15:36:48.804Z,0.98
2022-08-03T15:41:49.526Z,1.45
2022-08-03T15:44:20.798Z,1.27
2022-08-03T15:46:54.823Z,1.27
2022-08-03T15:49:23.451Z,1.50
2022-08-03T15:51:51.685Z,1.17
2022-08-03T15:54:19.945Z,2.45
2022-08-03T15:56:49.359Z,5.80
2022-08-03T15:59:19.957Z,1.50
2022-08-03T16:01:49.720Z,1.42
2022-08-03T16:04:18.886Z,1.63
2022-08-03T16:06:53.750Z,1.63
2022-08-03T16:09:42.866Z,2.25
2022-08-03T16:12:16.633Z,3.13
2022-08-03T16:14:53.793Z,2.28
2022-08-03T16:17:24.481Z,1.10
2022-08-03T16:19:58.870Z,4.88
2022-08-03T16:22:31.233Z,1.63
2022-08-03T16:25:03.106Z,1.20
2022-08-03T16:28:00.317Z,1.10
2022-08-03T16:30:31.989Z,1.55
2022-08-03T16:33:07.254Z,10.10
2022-08-03T16:35:43.268Z,2.83
2022-08-03T16:38:18.749Z,1.60
2022-08-03T16:40:52.475Z,1.17
2022-08-03T16:43:25.300Z,1.27
2022-08-03T16:45:55.706Z,1.60
2022-08-03T16:48:34.018Z,1.70
2022-08-03T16:51:06.940Z,1.42
2022-08-03T16:54:05.286Z,1.30
2022-08-03T16:56:27.723Z,1.70
2022-08-03T16:58:56.432Z,1.30
2022-08-03T17:01:25.146Z,1.40
2022-08-03T17:04:07.428Z,1.30
2022-08-03T17:06:45.380Z,1.27
2022-08-03T17:09:18.107Z,2.10
2022-08-03T17:11:47.996Z,1.30
2022-08-03T17:14:21.940Z,1.65
2022-08-03T17:16:54.814Z,1.60
2022-08-03T17:19:26.428Z,2.20
2022-08-03T17:22:09.007Z,1.60
2022-08-03T17:24:47.222Z,2.25
2022-08-03T17:28:48.897Z,2.00
2022-08-03T17:30:20.685Z,3.30
2022-08-03T17:32:57.656Z,4.15
2022-08-03T17:35:36.701Z,4.20
2022-08-03T17:38:14.464Z,4.30
2022-08-03T17:40:51.897Z,4.68
2022-08-03T17:44:13.644Z,8.73
2022-08-03T17:46:12.578Z,10.98
2022-08-03T17:48:42.107Z,8.50
2022-08-03T17:51:26.591Z,37.83
2022-08-03T17:53:58.865Z,29.65
2022-08-03T17:56:44.537Z,25.90
2022-08-03T17:59:52.167Z,16.08
2022-08-03T18:05:17.457Z,9.10
2022-08-03T18:08:00.793Z,10.00
2022-08-03T18:10:49.700Z,10.32
2022-08-03T18:13:53.295Z,13.60
2022-08-03T18:16:42.783Z,11.05
2022-08-03T18:19:13.693Z,11.40
2022-08-03T18:22:02.749Z,11.00
2022-08-03T18:24:32.367Z,16.95
2022-08-03T18:27:03.284Z,40.72
2022-08-03T18:29:43.409Z,32.03
2022-08-03T18:32:17.115Z,32.88
2022-08-03T18:34:53.130Z,43.35
2022-08-03T18:37:26.073Z,33.40
2022-08-03T18:40:02.687Z,33.47
2022-08-03T18:42:37.242Z,33.38
2022-08-03T18:45:55.780Z,26.55
2022-08-03T18:49:29.222Z,11.75
2022-08-03T18:52:14.231Z,16.05
2022-08-03T18:55:21.503Z,16.30
2022-08-03T18:58:17.607Z,13.55
2022-08-03T19:01:58.275Z,12.70
2022-08-03T19:04:13.620Z,10.73
2022-08-03T19:07:00.166Z,16.35
2022-08-03T19:09:48.365Z,18.80
2022-08-03T19:12:39.868Z,17.65
2022-08-03T19:15:12.600Z,14.90
2022-08-03T19:17:57.993Z,17.42
2022-08-03T19:20:54.787Z,17.35
2022-08-03T19:23:26.383Z,18.00
2022-08-03T19:26:02.942Z,22.95
2022-08-03T19:28:41.450Z,18.55
2022-08-03T19:31:22.985Z,27.80
2022-08-03T19:34:01.189Z,25.08
2022-08-03T19:36:34.635Z,15.80
2022-08-03T19:39:18.738Z,17.65
2022-08-03T19:42:07.997Z,16.05
2022-08-03T19:44:43.447Z,15.77
2022-08-03T19:47:23.859Z,16.63
2022-08-03T19:52:49.360Z,18.98
2022-08-03T19:55:21.210Z,15.55
2022-08-03T20:02:26.637Z,11.85
2022-08-03T20:05:45.014Z,10.65
2022-08-03T20:30:12.576Z,13.00
2022-08-03T20:37:38.855Z,4.30
2022-08-03T20:41:04.842Z,6.13
2022-08-03T20:45:04.343Z,8.27
2022-08-03T20:48:22.163Z,2.95
2022-08-03T20:55:47.608Z,4.00
2022-08-03T21:02:29.183Z,4.38
2022-08-03T21:12:56.490Z,10.98
2022-08-03T21:13:03.004Z,19.92
2022-08-03T21:13:29.331Z,3.38
2022-08-03T21:16:12.514Z,3.80
2022-08-03T21:21:22.715Z,3.70
2022-08-03T21:23:56.796Z,3.70
2022-08-03T21:26:26.849Z,5.40
2022-08-03T21:29:03.954Z,6.13
2022-08-03T21:31:34.036Z,4.85
2022-08-03T21:34:07.983Z,6.55
2022-08-03T21:36:42.780Z,10.73
2022-08-03T21:39:13.906Z,7.55
2022-08-03T21:41:43.009Z,6.40
2022-08-03T21:44:25.179Z,6.50
2022-08-03T21:47:00.397Z,3.42
2022-08-03T21:50:05.166Z,5.45
2022-08-03T21:53:06.377Z,13.60
2022-08-03T21:56:17.308Z,5.90
2022-08-03T21:59:00.769Z,4.47
2022-08-03T22:02:27.630Z,3.25
2022-08-03T22:13:13.483Z,4.22
2022-08-03T22:15:51.123Z,4.43
2022-08-03T22:18:29.345Z,4.20
2022-08-03T22:23:56.346Z,4.53
2022-08-03T22:29:25.370Z,5.05
2022-08-03T22:35:48.391Z,6.13
2022-08-03T22:41:29.694Z,4.00
2022-08-03T22:43:58.968Z,3.78
2022-08-03T22:46:44.710Z,4.70
2022-08-03T22:49:15.537Z,4.55
2022-08-03T22:51:46.524Z,4.18
2022-08-03T22:54:25.141Z,4.70
2022-08-03T22:56:56.521Z,4.50
2022-08-03T22:59:38.941Z,4.13
2022-08-03T23:02:20.201Z,4.38
2022-08-03T23:05:02.864Z,5.30
2022-08-03T23:07:36.577Z,4.75
2022-08-03T23:10:09.405Z,4.20
2022-08-03T23:12:47.440Z,4.65
2022-08-03T23:15:36.124Z,4.63
2022-08-03T23:18:07.765Z,4.55
2022-08-03T23:20:38.016Z,4.10
2022-08-03T23:23:09.609Z,4.15
2022-08-03T23:25:41.471Z,4.40
2022-08-03T23:28:14.773Z,4.80
2022-08-03T23:31:02.931Z,3.92
2022-08-03T23:33:33.670Z,5.57
2022-08-03T23:36:27.979Z,5.13
2022-08-03T23:38:56.044Z,4.93
2022-08-03T23:41:25.601Z,4.95
2022-08-03T23:44:01.786Z,5.00
2022-08-03T23:46:39.425Z,5.47
2022-08-03T23:49:09.930Z,5.35
2022-08-03T23:52:01.895Z,5.25
2022-08-03T23:54:32.378Z,4.90
2022-08-03T23:57:18.893Z,5.70
